Cedar City, Iowa
Current Conditions -  °F | °C
As of 4:15 PM on Saturday 20 Dec 2014 (Local Time) from KALO Reporting Station
Haze Haze  
Wind Chill: 32°   Ceiling: 1500
Heat Index: 32°   Visibility: 4mi
Dew Point: 31°   Wind: 3mph
Humidity: 96%   Direction: 190°S
Pressure: 30.15"   Gusts: NA
Location:  42.5035°N, 92.4936°W
Report Text: KALO 202215Z 19003KT 4SM BR FEW008 OVC015 00/M01 A3015 RMK AO2 T00001006
Loading
Personal Weather Stations






























Interactive Weather Map New forecast layout! Learn more

10-Day Weather Forecast

Advertisements
Track Severe Weather on mobile